Time;durP1;ratioP1;P1;durP2;ratioP2;P2;SDS_P1;SDS_P2;PMS_P1;PMS_P2;Temp;Humidity;BMP_temperature;BMP_pressure;BME280_temperature;BME280_humidity;BME280_pressure;Samples;Min_cycle;Max_cycle;Signal;HPM_P1;HPM_P2
2021/03/02 00:01:12;;;;;;;19.40;11.80;;;11.20;89.20;;;;;;6214072;23;20004;-71
2021/03/02 00:03:39;;;;;;;15.85;10.93;;;11.20;89.10;;;;;;6214113;23;20430;-72
2021/03/02 00:06:06;;;;;;;20.65;10.82;;;11.20;88.40;;;;;;6214056;23;20015;-72
2021/03/02 00:08:33;;;;;;;18.75;10.55;;;11.20;88.20;;;;;;6187910;23;20004;-71
2021/03/02 00:11:00;;;;;;;19.00;10.52;;;11.30;88.30;;;;;;6187418;23;20001;-72
2021/03/02 00:13:27;;;;;;;17.63;10.48;;;11.20;88.10;;;;;;6214389;23;20409;-71
2021/03/02 00:15:53;;;;;;;18.67;10.43;;;11.30;87.80;;;;;;6214042;23;20005;-71
2021/03/02 00:18:19;;;;;;;19.52;11.20;;;11.30;87.80;;;;;;6213494;23;20011;-71
2021/03/02 00:20:48;;;;;;;21.60;12.23;;;11.30;88.70;;;;;;6213985;23;20004;-72
2021/03/02 00:23:34;;;;;;;21.70;11.80;;;11.20;89.70;;;;;;6213996;23;19997;-71
2021/03/02 00:26:02;;;;;;;26.98;12.55;;;11.10;90.00;;;;;;6214070;23;20012;-72
2021/03/02 00:28:28;;;;;;;23.95;11.90;;;11.10;90.10;;;;;;6213587;23;20414;-71
2021/03/02 00:30:54;;;;;;;19.35;10.27;;;11.00;90.30;;;;;;6213512;23;20035;-72
2021/03/02 00:33:25;;;;;;;23.25;10.65;;;11.10;89.70;;;;;;6214119;23;20079;-71
2021/03/02 00:35:51;;;;;;;26.52;12.93;;;11.10;88.90;;;;;;6214151;23;20007;-71
2021/03/02 00:38:17;;;;;;;21.85;12.45;;;11.10;90.00;;;;;;6213502;23;20000;-71
2021/03/02 00:40:42;;;;;;;21.88;11.85;;;11.10;90.20;;;;;;6213576;23;20008;-71
2021/03/02 00:43:08;;;;;;;20.50;11.40;;;11.10;90.30;;;;;;6183840;23;705891;-71
2021/03/02 00:45:34;;;;;;;22.25;12.38;;;11.10;90.20;;;;;;6215357;23;20008;-71
2021/03/02 00:48:00;;;;;;;22.35;11.90;;;11.00;90.60;;;;;;6188856;23;20011;-71
2021/03/02 00:50:27;;;;;;;20.90;11.50;;;10.90;90.60;;;;;;6215361;23;20073;-72
2021/03/02 00:52:53;;;;;;;19.45;11.60;;;10.90;90.60;;;;;;6215374;23;20008;-71
2021/03/02 00:55:20;;;;;;;19.80;11.07;;;10.90;90.60;;;;;;6215297;23;20000;-71
2021/03/02 00:57:45;;;;;;;20.77;11.40;;;10.90;90.70;;;;;;6215654;23;20004;-71
2021/03/02 01:00:12;;;;;;;19.13;11.18;;;10.90;90.70;;;;;;6215637;23;20000;-71
2021/03/02 01:02:37;;;;;;;21.63;12.02;;;10.90;90.70;;;;;;6215553;23;20037;-71
2021/03/02 01:05:08;;;;;;;23.48;13.02;;;10.90;90.80;;;;;;6215590;23;19997;-71
2021/03/02 01:07:35;;;;;;;18.83;11.93;;;10.90;90.70;;;;;;6215306;23;20365;-71
2021/03/02 01:10:03;;;;;;;23.00;12.05;;;10.90;90.80;;;;;;6215102;23;20100;-71
2021/03/02 01:12:29;;;;;;;18.88;11.77;;;10.90;90.70;;;;;;6215424;23;20370;-72
2021/03/02 01:14:59;;;;;;;22.13;12.32;;;10.90;90.90;;;;;;6214970;23;20007;-71
2021/03/02 01:17:25;;;;;;;16.67;11.13;;;10.90;90.80;;;;;;6215540;23;20008;-71
2021/03/02 01:19:51;;;;;;;23.58;12.50;;;10.80;90.60;;;;;;6215755;23;21036;-72
2021/03/02 01:22:17;;;;;;;23.42;11.52;;;10.90;90.60;;;;;;6215171;23;20075;-72
2021/03/02 01:24:43;;;;;;;18.98;10.88;;;10.90;90.60;;;;;;6214506;23;20028;-72
2021/03/02 01:27:09;;;;;;;21.80;11.80;;;10.90;90.70;;;;;;6214546;23;20008;-71
2021/03/02 01:29:35;;;;;;;19.27;11.70;;;10.80;90.80;;;;;;6215398;23;20299;-71
2021/03/02 01:32:01;;;;;;;22.80;13.02;;;10.80;90.80;;;;;;6215167;23;20077;-70
2021/03/02 01:34:26;;;;;;;25.42;12.68;;;10.80;91.10;;;;;;6215449;23;20024;-71
2021/03/02 01:36:52;;;;;;;16.70;10.73;;;10.80;90.80;;;;;;6187925;23;20004;-71
2021/03/02 01:39:18;;;;;;;23.35;11.68;;;10.80;90.80;;;;;;6214912;23;20350;-71
2021/03/02 01:41:54;;;;;;;16.52;10.35;;;10.80;90.80;;;;;;6214768;23;20008;-71
2021/03/02 01:44:20;;;;;;;19.50;11.27;;;10.90;90.20;;;;;;6214814;23;20016;-72
2021/03/02 01:46:48;;;;;;;19.02;10.38;;;10.90;90.20;;;;;;6188035;23;20015;-71
2021/03/02 01:49:14;;;;;;;22.63;10.75;;;10.90;90.20;;;;;;6214997;23;20031;-71
2021/03/02 01:51:40;;;;;;;21.48;11.20;;;10.90;90.40;;;;;;6215028;23;20330;-72
2021/03/02 01:54:06;;;;;;;19.70;11.63;;;10.90;90.50;;;;;;6214803;23;20421;-72
2021/03/02 01:56:31;;;;;;;19.17;10.68;;;10.90;90.40;;;;;;6215221;23;20011;-71
2021/03/02 01:58:57;;;;;;;16.52;10.30;;;10.80;90.60;;;;;;6214029;23;20028;-71
2021/03/02 02:01:23;;;;;;;14.50;10.40;;;10.80;90.60;;;;;;6214605;23;20020;-72
2021/03/02 02:04:01;;;;;;;20.60;10.85;;;10.80;90.50;;;;;;6215070;23;20019;-72
2021/03/02 02:06:50;;;;;;;20.17;11.38;;;10.80;90.60;;;;;;6214740;23;20067;-72
2021/03/02 02:09:27;;;;;;;20.40;10.52;;;10.80;90.50;;;;;;6145755;23;20035;-71
2021/03/02 02:11:53;;;;;;;23.77;11.93;;;10.80;90.70;;;;;;6188708;23;20009;-71
2021/03/02 02:14:36;;;;;;;19.50;11.80;;;10.80;90.80;;;;;;6214255;23;20027;-71
2021/03/02 02:17:06;;;;;;;23.48;12.60;;;10.80;91.00;;;;;;6214450;23;20327;-71
2021/03/02 02:19:54;;;;;;;25.05;12.35;;;10.70;91.10;;;;;;6214420;23;20020;-71
2021/03/02 02:22:20;;;;;;;29.10;12.52;;;10.70;90.90;;;;;;6214562;23;20028;-71
2021/03/02 02:25:03;;;;;;;19.17;11.32;;;10.80;91.00;;;;;;6214236;23;20296;-71
2021/03/02 02:27:32;;;;;;;23.08;11.30;;;10.70;91.00;;;;;;6214450;23;20009;-71
2021/03/02 02:29:59;;;;;;;20.30;11.80;;;10.70;90.80;;;;;;6214957;23;20075;-71
2021/03/02 02:32:27;;;;;;;20.00;11.13;;;10.60;91.00;;;;;;6214788;23;20345;-71
2021/03/02 02:34:54;;;;;;;18.95;10.75;;;10.60;91.00;;;;;;6214625;23;20008;-72
2021/03/02 02:37:21;;;;;;;18.42;10.88;;;10.60;91.10;;;;;;6214102;23;20007;-71
2021/03/02 02:39:48;;;;;;;22.63;11.43;;;10.60;90.90;;;;;;6214074;23;20000;-71
2021/03/02 02:42:15;;;;;;;23.70;11.35;;;10.60;91.10;;;;;;6214523;23;20004;-71
2021/03/02 02:44:42;;;;;;;18.20;11.77;;;10.60;91.10;;;;;;6214216;23;20350;-71
2021/03/02 02:47:08;;;;;;;23.05;13.13;;;10.50;91.20;;;;;;6214547;23;20008;-71
2021/03/02 02:49:35;;;;;;;22.73;12.25;;;10.60;91.40;;;;;;6214702;23;20047;-71
2021/03/02 02:52:02;;;;;;;19.45;12.15;;;10.60;91.30;;;;;;6213780;23;20401;-71
2021/03/02 02:54:28;;;;;;;23.30;12.70;;;10.60;91.50;;;;;;6213651;23;20005;-71
2021/03/02 02:56:56;;;;;;;20.10;11.88;;;10.60;91.40;;;;;;6213863;23;20023;-72
2021/03/02 02:59:24;;;;;;;19.73;12.13;;;10.60;91.40;;;;;;6214409;23;20028;-72
2021/03/02 03:01:57;;;;;;;23.45;12.57;;;10.60;91.50;;;;;;6214116;23;20434;-72
2021/03/02 03:04:31;;;;;;;23.17;13.70;;;10.60;91.50;;;;;;6214094;23;20330;-72
2021/03/02 03:06:59;;;;;;;25.65;13.38;;;10.50;91.70;;;;;;6214705;23;20304;-71
2021/03/02 03:09:25;;;;;;;23.90;14.07;;;10.50;91.80;;;;;;6214486;23;20020;-72
2021/03/02 03:11:59;;;;;;;25.08;13.77;;;10.40;91.80;;;;;;6213859;23;20001;-72
2021/03/02 03:14:27;;;;;;;29.27;14.20;;;10.40;92.00;;;;;;6214131;23;20354;-71
2021/03/02 03:16:54;;;;;;;22.80;14.32;;;10.50;92.00;;;;;;6213959;23;20500;-72
2021/03/02 03:19:27;;;;;;;27.08;14.40;;;10.40;92.10;;;;;;6213765;23;19997;-71
2021/03/02 03:21:54;;;;;;;33.35;15.45;;;10.40;92.20;;;;;;6214118;23;20078;-71
2021/03/02 03:24:21;;;;;;;31.08;15.88;;;10.40;92.30;;;;;;6214434;23;20426;-71
2021/03/02 03:26:48;;;;;;;24.83;14.82;;;10.40;92.40;;;;;;6214148;23;20055;-71
2021/03/02 03:29:15;;;;;;;31.30;15.02;;;10.40;92.50;;;;;;6214184;23;20024;-72
2021/03/02 03:31:44;;;;;;;28.08;16.00;;;10.30;92.50;;;;;;6214385;23;20008;-71
2021/03/02 03:34:09;;;;;;;35.35;15.75;;;10.40;92.60;;;;;;6214156;23;20004;-72
2021/03/02 03:36:36;;;;;;;27.67;16.00;;;10.40;92.60;;;;;;6213919;23;20111;-72
2021/03/02 03:39:03;;;;;;;33.13;15.85;;;10.40;92.60;;;;;;6213435;23;20000;-71
2021/03/02 03:41:29;;;;;;;29.77;16.55;;;10.30;92.70;;;;;;6187209;23;20016;-72
2021/03/02 03:43:55;;;;;;;29.55;16.35;;;10.30;92.80;;;;;;6213157;23;20031;-71
2021/03/02 03:46:21;;;;;;;36.78;18.45;;;10.20;92.90;;;;;;6214110;23;20091;-71
2021/03/02 03:48:46;;;;;;;28.13;16.48;;;10.20;93.00;;;;;;6214336;23;20070;-71
2021/03/02 03:51:13;;;;;;;32.17;16.00;;;10.20;93.00;;;;;;6213846;23;20014;-72
2021/03/02 03:53:40;;;;;;;28.02;17.38;;;10.20;93.10;;;;;;6214247;23;20020;-72
2021/03/02 03:56:07;;;;;;;27.27;16.75;;;10.20;93.10;;;;;;6213987;23;20047;-72
2021/03/02 03:58:35;;;;;;;27.95;16.67;;;10.10;93.20;;;;;;6213189;23;20028;-71
2021/03/02 04:01:03;;;;;;;28.90;16.80;;;10.10;93.30;;;;;;6187989;23;20008;-72
2021/03/02 04:03:32;;;;;;;27.95;16.83;;;10.10;93.40;;;;;;6213867;23;20005;-72
2021/03/02 04:06:00;;;;;;;34.05;17.33;;;10.00;93.50;;;;;;6213603;23;20019;-71
2021/03/02 04:08:27;;;;;;;28.73;16.75;;;10.00;93.50;;;;;;6213984;23;20011;-72
2021/03/02 04:10:53;;;;;;;31.83;16.60;;;10.00;93.60;;;;;;6213977;23;20055;-71
2021/03/02 04:13:18;;;;;;;30.90;16.20;;;10.00;93.50;;;;;;6213441;23;20009;-72
2021/03/02 04:15:45;;;;;;;32.72;16.13;;;10.00;93.60;;;;;;6213416;23;20039;-72
2021/03/02 04:18:18;;;;;;;26.23;16.58;;;9.90;93.70;;;;;;6213661;23;20304;-72
2021/03/02 04:20:45;;;;;;;33.20;17.17;;;9.90;93.80;;;;;;6213411;23;19996;-72
2021/03/02 04:23:11;;;;;;;29.33;16.30;;;9.90;93.80;;;;;;6213923;23;20013;-71
2021/03/02 04:25:37;;;;;;;25.38;14.88;;;9.80;93.90;;;;;;6213509;23;20012;-72
2021/03/02 04:28:04;;;;;;;30.08;16.50;;;9.80;93.80;;;;;;6213809;23;20027;-72
2021/03/02 04:30:31;;;;;;;25.88;14.55;;;9.80;93.80;;;;;;6214837;23;20001;-72
2021/03/02 04:32:57;;;;;;;27.65;15.30;;;9.80;93.80;;;;;;6215581;23;20004;-71
2021/03/02 04:35:23;;;;;;;30.38;17.63;;;9.90;93.70;;;;;;6215581;23;20473;-72
2021/03/02 04:37:49;;;;;;;26.05;15.73;;;9.90;93.60;;;;;;6188643;23;20008;-72
2021/03/02 04:40:15;;;;;;;26.02;14.88;;;9.90;93.50;;;;;;6214732;23;20001;-71
2021/03/02 04:42:41;;;;;;;27.70;15.60;;;10.00;93.40;;;;;;6215381;23;20005;-71
2021/03/02 04:45:08;;;;;;;26.83;16.23;;;10.00;93.30;;;;;;6215883;23;20001;-72
2021/03/02 04:47:35;;;;;;;23.08;14.27;;;10.00;93.20;;;;;;6215393;23;20019;-72
2021/03/02 04:50:01;;;;;;;24.45;14.48;;;10.00;93.30;;;;;;6215145;23;20005;-72
2021/03/02 04:52:27;;;;;;;27.63;14.48;;;10.10;93.10;;;;;;6215558;23;20015;-72
2021/03/02 04:54:53;;;;;;;23.75;14.73;;;10.10;93.00;;;;;;6215798;23;20000;-71
2021/03/02 04:57:18;;;;;;;24.02;14.60;;;10.10;93.00;;;;;;6215212;23;20007;-72
2021/03/02 04:59:44;;;;;;;22.70;14.27;;;10.10;93.10;;;;;;6215479;23;20619;-72
2021/03/02 05:02:10;;;;;;;23.05;13.98;;;10.10;92.90;;;;;;6215799;23;20084;-72
2021/03/02 05:04:35;;;;;;;26.23;14.93;;;10.10;93.00;;;;;;6215890;23;20322;-72
2021/03/02 05:07:01;;;;;;;25.85;13.88;;;10.10;92.90;;;;;;6215316;23;20009;-72
2021/03/02 05:09:27;;;;;;;21.75;13.95;;;10.10;93.10;;;;;;6214980;23;20000;-72
2021/03/02 05:11:53;;;;;;;29.08;14.10;;;10.10;92.90;;;;;;6215453;23;20001;-71
2021/03/02 05:14:19;;;;;;;27.25;14.82;;;10.10;92.90;;;;;;6215589;23;20019;-72
2021/03/02 05:16:45;;;;;;;23.60;13.90;;;10.10;92.90;;;;;;6215752;23;20035;-72
2021/03/02 05:19:11;;;;;;;24.75;13.63;;;10.10;93.00;;;;;;6214804;23;19997;-71
2021/03/02 05:21:36;;;;;;;25.80;14.57;;;10.10;93.00;;;;;;6188244;23;20009;-72
2021/03/02 05:24:02;;;;;;;27.30;14.80;;;10.10;93.00;;;;;;6215352;23;20007;-72
2021/03/02 05:26:28;;;;;;;31.60;16.15;;;10.10;93.10;;;;;;6188641;23;20048;-72
2021/03/02 05:28:57;;;;;;;26.67;15.27;;;10.00;93.20;;;;;;6215217;23;20482;-72
2021/03/02 05:31:23;;;;;;;27.40;16.42;;;10.00;93.40;;;;;;6215404;23;20007;-72
2021/03/02 05:33:49;;;;;;;27.38;15.23;;;9.90;93.50;;;;;;6215417;23;20430;-72
2021/03/02 05:36:15;;;;;;;22.95;14.25;;;9.90;93.60;;;;;;6215412;23;20023;-72
2021/03/02 05:38:42;;;;;;;25.30;14.57;;;9.90;93.60;;;;;;6215127;23;20494;-72
2021/03/02 05:41:08;;;;;;;25.23;15.43;;;9.90;93.60;;;;;;6214814;23;20062;-72
2021/03/02 05:43:38;;;;;;;23.33;13.57;;;9.90;93.60;;;;;;6213842;23;20044;-72
2021/03/02 05:46:05;;;;;;;29.38;13.68;;;9.90;93.50;;;;;;6214750;23;20578;-72
2021/03/02 05:48:31;;;;;;;21.20;13.77;;;9.90;93.30;;;;;;6214819;23;20000;-72
2021/03/02 05:50:58;;;;;;;34.78;15.45;;;9.90;93.30;;;;;;6214886;23;20031;-71
2021/03/02 05:53:24;;;;;;;26.25;13.93;;;10.00;93.20;;;;;;6215095;23;20008;-72
2021/03/02 05:55:50;;;;;;;26.58;14.32;;;10.00;93.20;;;;;;6214937;23;20051;-72
2021/03/02 05:58:16;;;;;;;30.73;14.60;;;10.00;93.10;;;;;;6215482;23;20433;-72
2021/03/02 06:00:42;;;;;;;24.40;14.00;;;10.10;93.30;;;;;;6215218;23;20469;-72
2021/03/02 06:03:08;;;;;;;25.42;14.15;;;10.10;93.20;;;;;;6214723;23;20465;-71
2021/03/02 06:05:34;;;;;;;32.70;14.40;;;10.10;93.20;;;;;;6214403;23;20379;-72
2021/03/02 06:08:01;;;;;;;26.80;14.75;;;10.10;93.10;;;;;;6214970;23;20013;-71
2021/03/02 06:10:31;;;;;;;21.60;14.38;;;10.30;93.00;;;;;;6214503;23;20008;-72
2021/03/02 06:12:58;;;;;;;25.27;14.52;;;10.60;92.70;;;;;;6213067;23;20434;-71
2021/03/02 06:15:26;;;;;;;25.20;13.75;;;10.90;92.20;;;;;;6213617;23;20491;-72
2021/03/02 06:18:09;;;;;;;27.48;14.25;;;11.20;92.00;;;;;;6214923;23;20000;-70
2021/03/02 06:20:36;;;;;;;26.40;14.98;;;11.40;91.70;;;;;;6214933;23;20001;-71
2021/03/02 06:23:24;;;;;;;26.20;14.13;;;11.70;91.20;;;;;;6214981;23;20071;-72
2021/03/02 06:25:51;;;;;;;26.30;14.02;;;11.90;90.80;;;;;;6213385;23;20418;-71
2021/03/02 06:28:40;;;;;;;23.55;13.52;;;12.10;90.40;;;;;;6213841;23;20004;-72
2021/03/02 06:31:07;;;;;;;21.58;13.07;;;12.30;90.00;;;;;;6213152;23;20003;-71
2021/03/02 06:33:33;;;;;;;19.42;12.13;;;12.40;89.40;;;;;;6213315;23;20011;-71
2021/03/02 06:35:59;;;;;;;22.15;12.88;;;12.50;88.60;;;;;;6212761;23;20005;-72
2021/03/02 06:38:29;;;;;;;20.00;12.50;;;12.80;88.30;;;;;;6213984;23;20418;-72
2021/03/02 06:40:55;;;;;;;21.55;13.45;;;13.00;87.20;;;;;;6213718;23;20000;-72
2021/03/02 06:43:40;;;;;;;20.58;12.45;;;13.10;86.80;;;;;;6214112;23;20009;-72
2021/03/02 06:46:08;;;;;;;19.13;12.43;;;13.20;86.00;;;;;;6214508;23;20036;-71
2021/03/02 06:48:49;;;;;;;16.80;10.80;;;13.50;85.90;;;;;;6213507;23;20084;-72
2021/03/02 06:51:32;;;;;;;16.88;11.93;;;13.60;84.60;;;;;;6214112;23;20058;-72
2021/03/02 06:54:15;;;;;;;18.90;11.70;;;14.00;83.50;;;;;;6214702;23;20063;-73
2021/03/02 06:56:42;;;;;;;22.55;12.18;;;14.00;83.10;;;;;;6214210;23;20001;-72
2021/03/02 06:59:14;;;;;;;19.05;12.30;;;13.80;84.10;;;;;;6214860;23;20047;-73
2021/03/02 07:01:41;;;;;;;;;;;14.00;83.10;;;;;;6215049;23;20012;-72
2021/03/02 07:04:11;;;;;;;26.70;12.10;;;14.10;82.90;;;;;;6213532;23;19915;-73
2021/03/02 07:06:39;;;;;;;17.50;12.10;;;14.20;83.00;;;;;;6213977;23;20013;-72
2021/03/02 07:09:07;;;;;;;19.73;11.13;;;14.30;82.50;;;;;;6214482;23;20299;-72
2021/03/02 07:11:38;;;;;;;29.20;11.35;;;14.40;82.20;;;;;;6214237;23;20095;-72
2021/03/02 07:14:12;;;;;;;20.77;12.23;;;14.50;81.50;;;;;;6214073;23;20063;-72
2021/03/02 07:16:40;;;;;;;64.40;15.52;;;14.70;80.70;;;;;;6213557;23;20084;-73
2021/03/02 07:19:06;;;;;;;36.40;12.90;;;15.10;80.30;;;;;;6214080;23;20007;-72
2021/03/02 07:21:37;;;;;;;19.20;11.52;;;15.00;79.10;;;;;;6213852;23;20004;-72
2021/03/02 07:24:04;;;;;;;23.45;10.95;;;15.10;79.60;;;;;;6214613;23;20501;-72
2021/03/02 07:26:32;;;;;;;18.58;9.85;;;15.30;78.50;;;;;;6214193;23;20015;-72
2021/03/02 07:29:00;;;;;;;22.17;10.13;;;15.30;79.20;;;;;;6214249;23;20004;-72
2021/03/02 07:31:26;;;;;;;19.13;10.00;;;15.60;78.40;;;;;;6213291;23;20004;-72
2021/03/02 07:33:52;;;;;;;16.75;9.88;;;15.70;77.50;;;;;;6214134;23;20001;-73
2021/03/02 07:36:18;;;;;;;17.60;10.57;;;15.70;77.70;;;;;;6214191;23;20073;-72
2021/03/02 07:39:10;;;;;;;18.13;10.80;;;15.90;77.30;;;;;;6214291;23;20047;-72
2021/03/02 07:41:36;;;;;;;16.77;10.18;;;16.10;77.30;;;;;;6214322;23;20035;-73
2021/03/02 07:44:02;;;;;;;19.45;10.07;;;16.10;77.10;;;;;;6214596;23;20350;-72
2021/03/02 07:46:42;;;;;;;14.75;9.25;;;16.20;76.40;;;;;;6214414;23;20039;-72
2021/03/02 07:49:22;;;;;;;14.93;10.05;;;16.20;76.10;;;;;;6214332;23;20009;-72
2021/03/02 07:52:00;;;;;;;14.15;9.25;;;16.20;76.80;;;;;;6214086;23;20341;-73
2021/03/02 07:54:31;;;;;;;15.23;9.30;;;16.20;75.10;;;;;;6214780;23;19996;-73
2021/03/02 07:57:15;;;;;;;14.90;9.25;;;16.30;74.60;;;;;;6214813;23;20016;-72
2021/03/02 07:59:42;;;;;;;16.65;8.57;;;16.50;73.60;;;;;;6213368;23;19997;-73
2021/03/02 08:02:20;;;;;;;15.23;9.25;;;16.60;73.30;;;;;;6212390;23;20000;-72
2021/03/02 08:04:50;;;;;;;14.40;8.82;;;16.30;73.20;;;;;;6186699;23;20335;-72
2021/03/02 08:07:20;;;;;;;14.80;8.77;;;16.50;73.30;;;;;;6216209;23;20079;-72
2021/03/02 08:09:48;;;;;;;14.02;8.65;;;16.90;71.70;;;;;;6216150;23;20331;-72
2021/03/02 08:12:30;;;;;;;14.57;8.02;;;17.10;71.80;;;;;;6216092;23;20422;-72
2021/03/02 08:14:56;;;;;;;;;;;17.40;71.10;;;;;;6189671;23;20012;-72
2021/03/02 08:17:23;;;;;;;16.23;7.72;;;17.30;70.10;;;;;;6189439;23;19983;-73
2021/03/02 08:20:00;;;;;;;16.50;9.23;;;17.60;71.30;;;;;;6216342;23;19997;-72
2021/03/02 08:22:27;;;;;;;13.73;8.52;;;18.10;70.20;;;;;;6215970;23;20422;-73
2021/03/02 08:25:11;;;;;;;15.20;7.72;;;18.40;70.30;;;;;;6215232;23;20004;-73
2021/03/02 08:27:48;;;;;;;14.05;7.47;;;18.90;69.00;;;;;;6189156;23;20442;-73
2021/03/02 08:30:25;;;;;;;13.15;7.57;;;19.20;67.40;;;;;;6216142;23;20076;-73
2021/03/02 08:32:54;;;;;;;10.35;6.65;;;19.40;67.20;;;;;;6216169;23;20083;-73
2021/03/02 08:35:27;;;;;;;11.40;6.82;;;19.90;65.50;;;;;;6189462;23;20009;-73
2021/03/02 08:37:54;;;;;;;12.40;6.63;;;20.40;62.80;;;;;;6215814;23;20084;-73
2021/03/02 08:40:31;;;;;;;13.52;6.40;;;20.50;62.10;;;;;;6215654;23;20001;-73
2021/03/02 08:43:16;;;;;;;9.60;6.03;;;20.50;61.70;;;;;;6215720;23;20047;-73
2021/03/02 08:45:50;;;;;;;10.05;6.57;;;20.40;61.20;;;;;;6215228;23;20008;-73
2021/03/02 08:48:17;;;;;;;10.80;6.40;;;20.40;62.40;;;;;;6216328;23;20489;-72
2021/03/02 08:50:44;;;;;;;10.13;6.38;;;20.90;61.10;;;;;;6189067;23;20012;-73
2021/03/02 08:53:28;;;;;;;7.90;5.97;;;21.30;59.80;;;;;;6215798;23;20008;-73
2021/03/02 08:55:54;;;;;;;10.70;6.05;;;21.80;58.50;;;;;;6215772;23;20068;-73
2021/03/02 08:58:40;;;;;;;9.57;6.60;;;22.30;58.40;;;;;;6215300;23;20011;-73
2021/03/02 09:01:13;;;;;;;9.23;6.38;;;22.80;58.20;;;;;;6215622;23;20005;-73
2021/03/02 09:03:42;;;;;;;11.98;7.53;;;23.50;56.20;;;;;;6215280;23;20005;-73
2021/03/02 09:06:19;;;;;;;11.65;6.43;;;23.60;55.50;;;;;;6188738;23;20048;-73
2021/03/02 09:09:01;;;;;;;15.20;5.97;;;23.50;55.70;;;;;;6215635;23;20338;-73
2021/03/02 09:11:31;;;;;;;11.98;5.70;;;24.10;55.40;;;;;;6215573;23;20001;-73
2021/03/02 09:13:59;;;;;;;6.80;5.13;;;24.10;54.80;;;;;;6215000;23;20031;-73
2021/03/02 09:16:31;;;;;;;9.30;5.50;;;24.10;54.50;;;;;;6215678;23;20000;-73
2021/03/02 09:19:09;;;;;;;14.02;5.85;;;24.20;55.20;;;;;;6188788;23;20028;-73
2021/03/02 09:21:37;;;;;;;10.35;6.10;;;24.30;53.80;;;;;;6215612;23;20402;-73
2021/03/02 09:24:04;;;;;;;8.73;5.53;;;24.60;54.00;;;;;;6216173;23;20423;-73
2021/03/02 09:26:30;;;;;;;8.07;5.30;;;24.40;53.20;;;;;;6216163;23;20061;-73
2021/03/02 09:29:04;;;;;;;9.23;5.55;;;24.30;53.70;;;;;;6215239;23;20007;-73
2021/03/02 09:31:31;;;;;;;9.10;5.43;;;23.70;53.60;;;;;;6214583;23;20010;-73
2021/03/02 09:33:58;;;;;;;10.25;5.60;;;23.70;53.60;;;;;;6214607;23;20005;-73
2021/03/02 09:36:27;;;;;;;6.43;4.55;;;23.80;52.60;;;;;;6215614;23;20004;-71
2021/03/02 09:38:54;;;;;;;18.88;4.72;;;24.10;52.10;;;;;;6215173;23;20411;-73
2021/03/02 09:41:41;;;;;;;8.50;5.30;;;24.40;52.00;;;;;;6189243;23;20004;-73
2021/03/02 09:44:40;;;;;;;10.43;4.60;;;23.90;51.20;;;;;;6215070;23;20043;-73
2021/03/02 09:47:06;;;;;;;8.10;4.82;;;23.90;51.70;;;;;;6214076;23;20450;-73
2021/03/02 09:49:41;;;;;;;9.95;4.63;;;23.80;50.90;;;;;;6215140;23;20008;-73
2021/03/02 09:52:28;;;;;;;9.90;5.10;;;23.80;51.20;;;;;;6213007;23;20011;-74
2021/03/02 09:55:11;;;;;;;5.63;4.43;;;23.80;51.00;;;;;;6213530;23;20438;-73
2021/03/02 09:58:11;;;;;;;5.70;4.65;;;24.10;51.30;;;;;;6214808;23;20326;-74
2021/03/02 10:00:48;;;;;;;8.25;4.90;;;24.60;51.00;;;;;;6135704;23;20028;-74
2021/03/02 10:03:24;;;;;;;6.75;4.40;;;25.10;50.10;;;;;;6214829;23;20028;-74
2021/03/02 10:05:54;;;;;;;8.70;4.95;;;25.00;50.50;;;;;;6214680;23;20843;-74
2021/03/02 10:08:30;;;;;;;9.82;4.85;;;25.10;51.10;;;;;;6214921;23;20012;-74
2021/03/02 10:11:02;;;;;;;7.40;4.90;;;25.20;51.50;;;;;;6214040;23;20004;-74
2021/03/02 10:13:31;;;;;;;10.30;5.38;;;24.50;51.20;;;;;;6214958;23;20008;-74
2021/03/02 10:16:30;;;;;;;6.82;5.10;;;23.60;51.50;;;;;;6214052;23;20000;-74
2021/03/02 10:19:32;;;;;;;8.32;4.63;;;22.60;51.70;;;;;;6187291;23;20301;-74
2021/03/02 10:22:00;;;;;;;7.03;5.43;;;22.40;53.40;;;;;;6210179;23;20009;-73
2021/03/02 10:24:27;;;;;;;7.32;5.72;;;22.50;54.10;;;;;;6212135;23;20012;-72
2021/03/02 10:27:00;;;;;;;8.18;5.93;;;;;;;;;;6211990;23;20013;-74
2021/03/02 10:29:27;;;;;;;9.98;6.15;;;21.90;54.00;;;;;;6213659;23;20054;-73
2021/03/02 10:31:53;;;;;;;8.00;5.53;;;21.70;55.00;;;;;;6213716;23;20004;-72
2021/03/02 10:34:19;;;;;;;8.05;5.88;;;21.60;54.60;;;;;;6213487;23;20469;-72
2021/03/02 10:36:51;;;;;;;8.30;5.18;;;21.40;54.60;;;;;;6213408;23;20000;-73
2021/03/02 10:39:16;;;;;;;;;;;21.10;54.40;;;;;;6214724;23;20079;-73
2021/03/02 10:41:43;;;;;;;11.48;5.57;;;;;;;;;;6186228;23;19924;-73
2021/03/02 10:44:10;;;;;;;9.98;6.35;;;21.00;55.50;;;;;;6212905;23;20013;-72
2021/03/02 10:46:36;;;;;;;8.52;5.82;;;21.10;55.30;;;;;;6213751;23;20011;-73
2021/03/02 10:49:03;;;;;;;8.75;5.65;;;21.10;55.40;;;;;;6213499;23;20011;-73
2021/03/02 10:51:30;;;;;;;11.15;5.75;;;21.20;56.20;;;;;;6213089;23;19992;-72
2021/03/02 10:53:56;;;;;;;9.20;5.80;;;21.00;56.20;;;;;;6213570;23;20001;-73
2021/03/02 10:56:22;;;;;;;9.02;4.90;;;20.60;55.70;;;;;;6213824;23;20043;-73
2021/03/02 10:58:49;;;;;;;9.38;5.35;;;20.60;55.90;;;;;;6213075;23;20012;-72
2021/03/02 11:01:16;;;;;;;9.43;6.00;;;20.40;56.80;;;;;;6213699;23;20083;-72
2021/03/02 11:03:42;;;;;;;8.38;5.25;;;20.30;57.20;;;;;;6213840;23;20062;-72
2021/03/02 11:06:12;;;;;;;9.27;5.93;;;20.40;57.40;;;;;;6213579;23;20142;-72
2021/03/02 11:08:38;;;;;;;11.15;5.82;;;20.50;56.50;;;;;;6213665;23;20075;-74
2021/03/02 11:11:04;;;;;;;9.65;6.22;;;20.70;57.80;;;;;;6213410;23;20005;-74
2021/03/02 11:13:30;;;;;;;10.70;6.45;;;20.60;60.50;;;;;;6213263;23;20001;-74
2021/03/02 11:15:56;;;;;;;10.20;6.50;;;20.50;61.50;;;;;;6187188;23;20031;-74
2021/03/02 11:18:21;;;;;;;11.18;6.38;;;20.50;60.50;;;;;;6213520;23;20075;-73
2021/03/02 11:20:47;;;;;;;17.30;7.05;;;20.40;61.20;;;;;;6213248;23;19996;-73
2021/03/02 11:23:13;;;;;;;12.93;7.30;;;20.20;66.30;;;;;;6213860;23;20008;-73
2021/03/02 11:25:40;;;;;;;17.75;9.00;;;20.00;70.40;;;;;;6213910;23;20001;-73
2021/03/02 11:28:07;;;;;;;20.15;7.88;;;19.60;73.80;;;;;;6213361;23;20016;-72
2021/03/02 11:30:33;;;;;;;14.30;6.90;;;19.50;72.50;;;;;;6186605;23;20082;-72
2021/03/02 11:32:59;;;;;;;12.02;7.30;;;19.40;69.20;;;;;;6213770;23;20679;-72
2021/03/02 11:35:25;;;;;;;14.30;6.68;;;19.40;69.60;;;;;;6213010;23;20072;-72
2021/03/02 11:37:50;;;;;;;23.60;7.75;;;19.20;71.40;;;;;;6213473;23;20035;-72
2021/03/02 11:40:18;;;;;;;17.13;8.23;;;19.00;73.80;;;;;;6188418;23;20056;-72
2021/03/02 11:42:44;;;;;;;13.85;7.72;;;18.90;75.80;;;;;;6215220;23;20381;-72
2021/03/02 11:45:12;;;;;;;12.90;7.90;;;19.00;78.40;;;;;;6215202;23;20001;-72
2021/03/02 11:47:38;;;;;;;12.18;8.18;;;19.00;80.20;;;;;;6215656;23;20172;-71
2021/03/02 11:50:06;;;;;;;10.60;6.75;;;18.70;79.90;;;;;;6216245;23;20330;-72
2021/03/02 11:52:32;;;;;;;16.80;6.20;;;18.70;76.30;;;;;;6216496;23;20005;-72
2021/03/02 11:54:58;;;;;;;12.23;6.30;;;18.60;70.50;;;;;;6216311;23;20472;-71
2021/03/02 11:57:24;;;;;;;10.95;6.82;;;18.50;71.50;;;;;;6215802;23;20072;-72
2021/03/02 11:59:50;;;;;;;12.27;7.40;;;18.40;72.00;;;;;;6215722;23;20015;-73
2021/03/02 12:02:16;;;;;;;12.80;6.45;;;18.40;72.50;;;;;;6216492;23;20066;-73
2021/03/02 12:04:43;;;;;;;15.20;6.38;;;18.30;72.10;;;;;;6216326;23;20001;-71
2021/03/02 12:07:09;;;;;;;15.20;7.10;;;18.30;71.60;;;;;;6216163;23;20066;-72
2021/03/02 12:09:36;;;;;;;29.23;7.10;;;18.20;71.60;;;;;;6215491;23;20001;-72
2021/03/02 12:12:03;;;;;;;13.90;6.70;;;18.10;72.40;;;;;;6214043;23;20005;-72
2021/03/02 12:14:29;;;;;;;13.32;7.10;;;18.00;73.20;;;;;;6188951;23;20110;-72
2021/03/02 12:16:54;;;;;;;14.90;7.22;;;17.80;73.50;;;;;;6215957;23;20074;-72
2021/03/02 12:19:20;;;;;;;15.75;7.10;;;17.80;72.60;;;;;;6216060;23;19997;-72
2021/03/02 12:21:46;;;;;;;10.65;6.93;;;17.90;72.70;;;;;;6215980;23;20001;-72
2021/03/02 12:24:12;;;;;;;20.25;8.40;;;17.80;73.80;;;;;;6214755;23;20016;-72
2021/03/02 12:26:37;;;;;;;13.02;7.40;;;17.80;72.40;;;;;;6188871;23;20035;-71
2021/03/02 12:29:03;;;;;;;11.50;6.75;;;17.80;72.50;;;;;;6215691;23;20041;-72
2021/03/02 12:31:29;;;;;;;11.13;6.88;;;17.80;72.80;;;;;;6216102;23;20079;-71
2021/03/02 12:33:55;;;;;;;15.63;7.13;;;17.90;72.60;;;;;;6215464;23;20015;-73
2021/03/02 12:36:21;;;;;;;9.70;6.63;;;17.90;71.70;;;;;;6189268;23;20410;-72
2021/03/02 12:38:47;;;;;;;11.50;6.75;;;17.90;71.10;;;;;;6215752;23;20032;-73
2021/03/02 12:41:13;;;;;;;10.65;5.97;;;17.80;71.30;;;;;;6215837;23;20000;-74
2021/03/02 12:43:39;;;;;;;8.52;6.00;;;17.60;71.80;;;;;;6214776;23;20023;-72